Terminal Aerodrome Forecast
Issued by NWS Charleston, WV

Current Version | Previous Version | Graphics & Text | Print | Product List | Glossary On
Versions: 1 2 3 4 5 6 7 8 9 10 11 12 13 14 15 16 17 18 19 20 21 22 23 24 25 26 27
908
FTUS41 KRLX 011453 AAA
TAFHTS
TAF AMD
KHTS 011453Z 0115/0212 18010KT P6SM BKN007 BKN060
     FM011600 20004KT P6SM BKN040
     FM012000 24005G22KT P6SM -TSRA BKN050CB
     FM020400 VRB03KT P6SM -SHRA VCTS BKN050CB
     FM020600 21005KT P6SM BKN015
     FM020900 21005KT 3SM BR BKN003=

USA.gov is the U.S. government's official web portal to all federal, state and local government web resources and services.